Time;durP1;ratioP1;P1;durP2;ratioP2;P2;SDS_P1;SDS_P2;PMS_P1;PMS_P2;Temp;Humidity;BMP_temperature;BMP_pressure;BME280_temperature;BME280_humidity;BME280_pressure;Samples;Min_cycle;Max_cycle;Signal;HPM_P1;HPM_P2
2023/09/18 00:01:01;;;;;;;6.10;2.73;;;21.60;17.60;;;;;;5014781;28;20671;-70
2023/09/18 00:03:26;;;;;;;5.40;3.17;;;21.60;17.20;;;;;;5014324;28;20295;-70
2023/09/18 00:05:53;;;;;;;3.93;2.73;;;21.50;17.00;;;;;;5014585;28;20207;-70
2023/09/18 00:08:19;;;;;;;3.60;3.20;;;21.60;16.90;;;;;;5014851;28;20186;-70
2023/09/18 00:10:50;;;;;;;3.77;3.43;;;21.50;16.60;;;;;;5014412;28;20774;-70
2023/09/18 00:13:16;;;;;;;3.37;2.60;;;21.50;16.70;;;;;;5014070;28;20423;-70
2023/09/18 00:15:44;;;;;;;2.77;2.43;;;21.50;16.60;;;;;;5014470;28;20470;-70
2023/09/18 00:18:09;;;;;;;2.47;2.27;;;21.50;16.50;;;;;;5014453;28;20413;-70
2023/09/18 00:20:35;;;;;;;3.47;2.73;;;21.50;16.10;;;;;;5014409;28;20415;-70
2023/09/18 00:23:00;;;;;;;5.50;2.83;;;21.50;15.90;;;;;;5013829;28;20215;-69
2023/09/18 00:25:26;;;;;;;2.93;2.60;;;21.40;16.50;;;;;;5014253;28;20183;-70
2023/09/18 00:27:51;;;;;;;3.30;2.70;;;21.40;16.00;;;;;;5013297;28;20211;-70
2023/09/18 00:30:17;;;;;;;3.53;3.13;;;21.40;15.50;;;;;;5014297;28;20171;-70
2023/09/18 00:32:43;;;;;;;3.70;2.50;;;21.40;15.00;;;;;;5013925;28;20203;-70
2023/09/18 00:35:09;;;;;;;4.37;3.20;;;21.50;13.60;;;;;;5014053;28;20176;-70
2023/09/18 00:37:36;;;;;;;4.03;3.00;;;21.50;14.20;;;;;;5013932;28;20543;-70
2023/09/18 00:40:02;;;;;;;3.43;2.80;;;21.50;15.10;;;;;;5014002;28;20263;-70
2023/09/18 00:42:27;;;;;;;4.07;3.13;;;21.50;15.30;;;;;;5013808;28;20993;-70
2023/09/18 00:44:53;;;;;;;3.43;2.50;;;21.40;14.90;;;;;;5013878;28;20544;-70
2023/09/18 00:47:19;;;;;;;4.00;3.07;;;21.40;15.00;;;;;;5013723;28;20207;-70
2023/09/18 00:49:47;;;;;;;6.90;2.50;;;21.40;15.00;;;;;;5013768;28;20285;-70
2023/09/18 00:52:14;;;;;;;3.00;2.13;;;21.60;15.40;;;;;;5013264;28;20430;-70
2023/09/18 00:54:41;;;;;;;4.70;3.07;;;21.50;15.30;;;;;;5013581;28;20434;-70
2023/09/18 00:57:08;;;;;;;4.53;2.93;;;21.50;15.40;;;;;;5012876;28;20512;-70
2023/09/18 00:59:34;;;;;;;3.87;2.40;;;21.50;15.80;;;;;;5013890;28;20503;-70
2023/09/18 01:02:00;;;;;;;5.40;2.90;;;21.50;16.00;;;;;;5011813;28;20486;-70
2023/09/18 01:04:28;;;;;;;4.13;2.93;;;21.50;16.40;;;;;;5013447;28;20663;-69
2023/09/18 01:06:56;;;;;;;3.57;2.50;;;21.50;17.10;;;;;;5013319;28;20200;-70
2023/09/18 01:09:22;;;;;;;5.73;2.87;;;21.60;17.60;;;;;;5011949;28;20561;-70
2023/09/18 01:12:14;;;;;;;3.90;3.20;;;21.40;18.50;;;;;;5011782;28;20726;-70
2023/09/18 01:14:42;;;;;;;3.83;2.53;;;21.30;19.20;;;;;;5013293;28;20407;-70
2023/09/18 01:17:10;;;;;;;5.37;2.77;;;21.30;19.10;;;;;;5015048;28;20415;-69
2023/09/18 01:19:39;;;;;;;4.77;3.40;;;21.10;21.00;;;;;;5015834;28;20422;-69
2023/09/18 01:22:06;;;;;;;4.17;2.43;;;20.90;21.50;;;;;;5015645;28;20525;-69
2023/09/18 01:24:33;;;;;;;4.33;3.17;;;20.80;22.00;;;;;;5015970;28;20777;-70
2023/09/18 01:26:59;;;;;;;4.10;3.10;;;20.60;23.30;;;;;;5015364;28;20469;-69
2023/09/18 01:29:24;;;;;;;5.60;3.23;;;20.50;24.40;;;;;;5012398;28;20426;-70
2023/09/18 01:31:51;;;;;;;5.23;3.33;;;20.20;25.40;;;;;;5012852;28;20195;-71
2023/09/18 01:34:21;;;;;;;5.07;2.70;;;20.20;25.80;;;;;;5014489;28;20171;-71
2023/09/18 01:36:47;;;;;;;4.40;3.60;;;20.30;25.50;;;;;;5011910;28;20528;-70
2023/09/18 01:39:13;;;;;;;3.50;2.70;;;20.30;25.90;;;;;;5013281;28;20422;-70
2023/09/18 01:41:40;;;;;;;4.07;3.10;;;20.20;26.60;;;;;;5013060;28;20776;-70
2023/09/18 01:44:06;;;;;;;4.47;2.70;;;20.20;26.50;;;;;;5013176;28;20443;-70
2023/09/18 01:46:35;;;;;;;5.50;3.03;;;20.30;26.80;;;;;;5013245;28;20548;-71
2023/09/18 01:49:03;;;;;;;5.20;3.80;;;20.10;27.30;;;;;;5013170;28;20172;-71
2023/09/18 01:51:29;;;;;;;3.93;3.20;;;20.10;27.90;;;;;;5012986;28;20419;-70
2023/09/18 01:53:55;;;;;;;6.93;3.90;;;20.00;27.20;;;;;;5011732;28;20753;-71
2023/09/18 01:56:21;;;;;;;7.90;2.60;;;19.90;27.20;;;;;;5012924;28;20203;-70
2023/09/18 01:58:47;;;;;;;8.83;2.97;;;19.90;27.60;;;;;;5011562;28;20502;-70
2023/09/18 02:01:13;;;;;;;3.23;2.73;;;19.70;28.40;;;;;;5011527;28;20516;-71
2023/09/18 02:03:41;;;;;;;4.83;3.33;;;19.70;29.00;;;;;;5055512;22;20325;-70
2023/09/18 02:06:08;;;;;;;4.00;2.53;;;19.60;29.10;;;;;;5051413;28;20576;-70
2023/09/18 02:08:34;;;;;;;8.40;2.70;;;19.60;29.20;;;;;;5051211;28;20409;-70
2023/09/18 02:11:00;;;;;;;5.20;3.17;;;19.50;29.10;;;;;;5051516;28;20412;-70
2023/09/18 02:13:25;;;;;;;5.87;3.30;;;19.50;29.10;;;;;;5051204;28;20880;-70
2023/09/18 02:15:51;;;;;;;4.03;2.90;;;19.50;29.40;;;;;;5051467;28;20174;-70
2023/09/18 02:18:17;;;;;;;5.40;2.90;;;19.50;30.00;;;;;;5051664;28;20163;-70
2023/09/18 02:20:47;;;;;;;5.90;2.90;;;19.50;29.30;;;;;;5051316;28;20231;-70
2023/09/18 02:23:13;;;;;;;5.03;2.93;;;19.50;29.10;;;;;;5051163;28;20433;-70
2023/09/18 02:25:40;;;;;;;4.27;3.57;;;19.50;29.10;;;;;;5051174;28;20413;-70
2023/09/18 02:28:06;;;;;;;3.53;3.00;;;19.50;29.10;;;;;;5033427;28;20672;-70
2023/09/18 02:30:31;;;;;;;3.73;2.57;;;19.50;29.10;;;;;;5051280;28;20409;-70
2023/09/18 02:32:56;;;;;;;4.00;2.47;;;19.60;28.20;;;;;;5050884;28;20601;-70
2023/09/18 02:35:22;;;;;;;3.90;2.30;;;19.60;28.50;;;;;;5033425;28;20235;-70
2023/09/18 02:37:47;;;;;;;5.20;2.93;;;19.70;27.90;;;;;;5051143;28;20194;-70
2023/09/18 02:40:13;;;;;;;3.43;2.60;;;19.70;27.30;;;;;;5051062;28;20182;-70
2023/09/18 02:42:39;;;;;;;5.90;3.00;;;19.70;27.40;;;;;;5050673;28;20291;-70
2023/09/18 02:45:05;;;;;;;4.73;2.63;;;19.70;27.30;;;;;;5051136;28;20421;-70
2023/09/18 02:47:32;;;;;;;5.70;2.90;;;19.70;27.40;;;;;;5050892;28;20198;-70
2023/09/18 02:49:57;;;;;;;5.50;2.33;;;19.70;27.40;;;;;;5051044;28;20494;-70
2023/09/18 02:52:23;;;;;;;6.53;2.70;;;19.60;27.40;;;;;;5050795;28;20904;-70
2023/09/18 02:54:48;;;;;;;3.80;2.90;;;19.70;27.50;;;;;;5051062;28;20167;-70
2023/09/18 02:57:14;;;;;;;3.50;2.50;;;19.60;28.10;;;;;;5050967;28;20181;-70
2023/09/18 02:59:40;;;;;;;6.23;2.87;;;19.50;28.80;;;;;;5050994;28;20177;-70
2023/09/18 03:02:05;;;;;;;5.13;2.80;;;19.50;28.30;;;;;;5050786;28;20226;-70
2023/09/18 03:04:31;;;;;;;2.80;2.50;;;19.50;29.10;;;;;;5051044;28;20780;-71
2023/09/18 03:06:57;;;;;;;4.17;2.50;;;19.40;29.90;;;;;;5050889;28;20260;-70
2023/09/18 03:09:22;;;;;;;4.03;3.20;;;19.30;30.70;;;;;;5050930;28;20170;-69
2023/09/18 03:11:48;;;;;;;5.00;2.63;;;19.20;31.50;;;;;;5050429;28;20883;-70
2023/09/18 03:14:13;;;;;;;3.93;2.37;;;19.10;32.20;;;;;;5050811;28;20173;-69
2023/09/18 03:16:39;;;;;;;7.40;3.50;;;19.00;33.50;;;;;;5050788;28;20174;-70
2023/09/18 03:19:04;;;;;;;5.33;2.63;;;19.00;33.70;;;;;;5051907;28;20182;-70
2023/09/18 03:21:33;;;;;;;7.47;2.80;;;19.00;34.10;;;;;;5054473;28;20546;-70
2023/09/18 03:23:59;;;;;;;9.40;3.23;;;18.90;34.20;;;;;;5054546;28;20202;-70
2023/09/18 03:26:25;;;;;;;5.03;3.27;;;18.80;35.00;;;;;;5054600;28;20780;-70
2023/09/18 03:28:50;;;;;;;4.10;3.07;;;18.80;34.90;;;;;;5054762;28;20409;-70
2023/09/18 03:31:15;;;;;;;4.00;2.53;;;18.90;35.10;;;;;;5054464;28;20185;-71
2023/09/18 03:33:41;;;;;;;4.73;3.00;;;18.80;35.90;;;;;;5054227;28;20199;-71
2023/09/18 03:36:07;;;;;;;4.07;3.40;;;18.80;36.30;;;;;;5054579;28;20609;-70
2023/09/18 03:38:35;;;;;;;6.70;3.30;;;18.80;35.90;;;;;;5054320;28;20178;-69
2023/09/18 03:41:01;;;;;;;3.93;2.90;;;18.80;36.00;;;;;;5054219;28;20488;-70
2023/09/18 03:43:26;;;;;;;3.83;2.90;;;18.90;35.80;;;;;;5054297;28;20930;-70
2023/09/18 03:45:52;;;;;;;5.53;2.57;;;18.90;34.80;;;;;;5054100;28;20171;-69
2023/09/18 03:48:17;;;;;;;4.43;3.00;;;19.00;35.20;;;;;;5054155;28;20170;-69
2023/09/18 03:50:43;;;;;;;4.97;3.27;;;19.00;34.50;;;;;;5054021;28;20175;-70
2023/09/18 03:53:10;;;;;;;3.70;2.60;;;19.10;34.50;;;;;;5053796;28;20194;-70
2023/09/18 03:55:37;;;;;;;3.50;2.40;;;19.10;34.00;;;;;;5054086;28;20710;-69
2023/09/18 03:58:04;;;;;;;3.60;2.40;;;19.20;33.10;;;;;;5054018;28;20463;-69
2023/09/18 04:00:30;;;;;;;4.30;2.77;;;19.30;32.30;;;;;;5053937;28;20885;-69
2023/09/18 04:02:56;;;;;;;3.00;2.40;;;19.30;31.60;;;;;;5053447;28;20591;-70
2023/09/18 04:05:21;;;;;;;8.53;2.73;;;19.30;32.10;;;;;;5053876;28;20163;-69
2023/09/18 04:07:47;;;;;;;4.20;2.53;;;19.30;31.00;;;;;;5053659;28;20209;-69
2023/09/18 04:10:22;;;;;;;5.43;2.47;;;19.30;30.00;;;;;;5053790;28;20642;-69
2023/09/18 04:12:50;;;;;;;9.77;3.40;;;19.40;29.10;;;;;;5053476;28;20208;-69
2023/09/18 04:15:17;;;;;;;3.60;2.10;;;19.60;27.90;;;;;;5053634;28;20635;-69
2023/09/18 04:17:42;;;;;;;4.47;2.60;;;19.80;27.10;;;;;;5053506;28;20413;-69
2023/09/18 04:20:09;;;;;;;4.00;2.60;;;19.90;26.50;;;;;;5053488;28;20941;-69
2023/09/18 04:22:34;;;;;;;7.27;3.20;;;20.00;26.00;;;;;;5053150;28;20619;-70
2023/09/18 04:25:00;;;;;;;12.37;3.03;;;20.10;25.80;;;;;;5053506;28;20412;-70
2023/09/18 04:27:25;;;;;;;5.00;2.80;;;20.10;26.10;;;;;;5053320;28;20202;-69
2023/09/18 04:29:51;;;;;;;4.97;2.70;;;20.20;26.10;;;;;;5052608;28;20549;-70
2023/09/18 04:32:16;;;;;;;5.20;3.10;;;20.20;25.90;;;;;;5052894;28;20643;-70
2023/09/18 04:34:42;;;;;;;8.77;3.30;;;20.10;26.40;;;;;;5053270;28;20270;-70
2023/09/18 04:37:08;;;;;;;5.63;2.70;;;20.20;26.20;;;;;;5053226;28;20502;-70
2023/09/18 04:39:33;;;;;;;7.63;2.77;;;20.20;26.30;;;;;;5053153;28;20192;-70
2023/09/18 04:42:03;;;;;;;7.17;2.87;;;20.20;26.10;;;;;;5052788;28;20673;-70
2023/09/18 04:44:29;;;;;;;7.17;2.73;;;20.20;26.40;;;;;;5053074;28;20178;-70
2023/09/18 04:46:54;;;;;;;7.80;3.30;;;20.10;26.80;;;;;;5053076;28;20908;-70
2023/09/18 04:49:20;;;;;;;6.07;3.00;;;20.10;27.10;;;;;;5035239;28;20554;-70
2023/09/18 04:51:46;;;;;;;7.03;2.03;;;20.00;27.10;;;;;;5052672;28;20182;-70
2023/09/18 04:54:12;;;;;;;6.57;2.40;;;20.00;27.30;;;;;;5052940;28;20420;-70
2023/09/18 04:56:37;;;;;;;7.70;3.23;;;20.00;27.70;;;;;;5052707;28;20182;-70
2023/09/18 04:59:03;;;;;;;3.63;2.73;;;19.90;27.90;;;;;;5052738;28;20452;-70
2023/09/18 05:01:30;;;;;;;5.03;2.00;;;19.90;28.10;;;;;;5052702;28;20257;-70
2023/09/18 05:03:55;;;;;;;6.20;2.60;;;19.90;27.70;;;;;;5052365;28;20472;-70
2023/09/18 05:06:21;;;;;;;5.60;2.97;;;19.90;28.40;;;;;;5052495;28;20465;-71
2023/09/18 05:08:46;;;;;;;4.57;2.40;;;20.00;28.10;;;;;;5052493;28;20186;-71
2023/09/18 05:11:12;;;;;;;11.33;3.50;;;20.00;28.00;;;;;;5052560;28;20179;-71
2023/09/18 05:13:37;;;;;;;7.00;2.70;;;20.00;27.60;;;;;;5052152;28;20259;-71
2023/09/18 05:16:03;;;;;;;8.07;2.63;;;20.00;27.90;;;;;;5052432;28;20658;-71
2023/09/18 05:18:29;;;;;;;4.30;2.77;;;20.00;28.30;;;;;;5052435;28;20271;-71
2023/09/18 05:20:54;;;;;;;8.13;2.00;;;20.10;28.20;;;;;;5052429;28;20660;-70
2023/09/18 05:23:20;;;;;;;3.83;2.50;;;20.10;28.40;;;;;;5052219;28;20229;-70
2023/09/18 05:25:45;;;;;;;3.87;2.30;;;20.10;28.20;;;;;;5034643;28;20269;-70
2023/09/18 05:28:11;;;;;;;5.37;3.20;;;20.20;28.10;;;;;;5052408;28;20175;-70
2023/09/18 05:30:40;;;;;;;5.93;3.37;;;20.20;28.10;;;;;;5052293;28;20190;-69
2023/09/18 05:33:07;;;;;;;9.40;4.43;;;20.20;28.30;;;;;;5035550;28;20593;-70
2023/09/18 05:35:51;;;;;;;4.23;2.93;;;20.20;28.50;;;;;;5052013;28;20444;-70
2023/09/18 05:38:17;;;;;;;8.60;2.53;;;20.20;28.70;;;;;;5052145;28;20420;-69
2023/09/18 05:40:44;;;;;;;7.87;2.50;;;20.20;28.80;;;;;;5052441;28;20409;-70
2023/09/18 05:43:11;;;;;;;2.97;1.83;;;20.30;28.60;;;;;;5051680;28;20972;-70
2023/09/18 05:45:37;;;;;;;6.07;2.93;;;20.40;28.20;;;;;;5052026;28;20425;-70
2023/09/18 05:48:06;;;;;;;9.73;3.70;;;20.50;28.00;;;;;;5051973;28;21013;-70
2023/09/18 05:50:33;;;;;;;4.60;2.47;;;20.60;27.40;;;;;;5052106;28;20202;-70
2023/09/18 05:53:00;;;;;;;7.07;2.93;;;20.80;25.80;;;;;;5052122;28;20436;-70
2023/09/18 05:55:27;;;;;;;4.53;2.07;;;20.80;26.30;;;;;;5051185;28;20700;-70
2023/09/18 05:57:53;;;;;;;6.97;2.80;;;20.90;26.00;;;;;;5051104;28;20478;-70
2023/09/18 06:00:19;;;;;;;4.10;2.37;;;21.00;25.50;;;;;;5051305;28;20428;-70
2023/09/18 06:02:45;;;;;;;6.83;2.77;;;21.00;24.80;;;;;;5051433;28;20453;-70
2023/09/18 06:05:11;;;;;;;8.47;2.77;;;21.00;24.30;;;;;;5052079;28;20274;-70
2023/09/18 06:07:37;;;;;;;6.50;3.00;;;21.10;24.00;;;;;;5051683;28;20539;-70
2023/09/18 06:10:03;;;;;;;13.80;3.03;;;21.20;23.70;;;;;;5051670;28;20748;-70
2023/09/18 06:12:29;;;;;;;7.30;3.40;;;21.30;23.60;;;;;;5051287;28;20195;-70
2023/09/18 06:14:55;;;;;;;6.30;2.87;;;21.30;23.40;;;;;;5051266;28;20240;-69
2023/09/18 06:17:21;;;;;;;11.60;3.37;;;21.40;22.70;;;;;;5051574;28;20421;-69
2023/09/18 06:19:46;;;;;;;9.83;3.80;;;21.60;22.20;;;;;;5051240;28;20683;-70
2023/09/18 06:22:13;;;;;;;5.43;2.43;;;21.50;22.00;;;;;;5051807;28;20564;-74
2023/09/18 06:24:38;;;;;;;3.93;2.33;;;21.50;22.00;;;;;;5053799;28;20171;-70
2023/09/18 06:27:04;;;;;;;6.13;3.33;;;21.50;21.90;;;;;;5053020;28;21171;-70
2023/09/18 06:29:31;;;;;;;4.53;2.23;;;21.50;21.90;;;;;;5052963;28;20257;-70
2023/09/18 06:31:57;;;;;;;6.97;2.10;;;21.50;22.30;;;;;;5054090;28;20408;-70
2023/09/18 06:34:22;;;;;;;12.30;3.83;;;21.60;21.40;;;;;;5054951;28;20443;-70
2023/09/18 06:36:48;;;;;;;9.40;2.63;;;22.10;21.90;;;;;;5053926;28;20234;-70
2023/09/18 06:39:15;;;;;;;5.83;2.30;;;21.40;21.80;;;;;;5039299;28;20270;-69
2023/09/18 06:41:40;;;;;;;5.97;2.80;;;21.40;21.70;;;;;;5051745;28;20416;-69
2023/09/18 06:44:06;;;;;;;7.20;3.27;;;21.50;21.80;;;;;;5042195;28;20434;-69
2023/09/18 06:46:32;;;;;;;8.50;3.13;;;21.70;21.90;;;;;;5048188;28;20210;-69
2023/09/18 06:48:59;;;;;;;6.50;3.10;;;21.70;22.10;;;;;;5049216;28;20182;-69
2023/09/18 06:51:27;;;;;;;5.63;2.77;;;21.80;22.20;;;;;;5047147;28;20186;-68
2023/09/18 06:53:53;;;;;;;5.77;2.93;;;21.70;20.90;;;;;;5020314;28;20528;-68
2023/09/18 06:56:19;;;;;;;8.13;3.13;;;21.60;22.10;;;;;;5030568;28;20697;-71
2023/09/18 06:58:46;;;;;;;14.83;4.83;;;21.50;21.20;;;;;;5038343;28;20504;-69
2023/09/18 07:01:11;;;;;;;5.20;2.47;;;21.60;19.60;;;;;;5033251;28;20531;-69
2023/09/18 07:03:40;;;;;;;5.03;2.80;;;21.60;19.50;;;;;;5036903;28;20463;-69
2023/09/18 07:06:05;;;;;;;12.60;3.40;;;21.70;19.40;;;;;;5047359;28;20202;-69
2023/09/18 07:08:32;;;;;;;18.03;4.30;;;21.80;19.80;;;;;;5013905;28;20436;-70
2023/09/18 07:10:58;;;;;;;19.40;2.63;;;21.90;20.10;;;;;;5029877;28;20249;-69
2023/09/18 07:13:23;;;;;;;6.77;3.73;;;21.90;21.00;;;;;;5029848;28;20533;-69
2023/09/18 07:15:49;;;;;;;8.90;2.53;;;21.80;22.00;;;;;;5031282;28;20436;-69
2023/09/18 07:18:15;;;;;;;26.27;6.77;;;21.90;22.80;;;;;;5031279;28;20605;-69
2023/09/18 07:20:41;;;;;;;10.93;2.73;;;22.00;23.30;;;;;;5030320;28;20270;-69
2023/09/18 07:23:07;;;;;;;8.10;3.50;;;22.10;22.40;;;;;;5031698;28;20576;-70
2023/09/18 07:25:32;;;;;;;6.23;2.60;;;22.10;22.40;;;;;;5030478;28;20499;-70
2023/09/18 07:27:58;;;;;;;7.67;2.90;;;22.00;22.30;;;;;;5030302;28;20583;-70
2023/09/18 07:30:26;;;;;;;12.10;3.50;;;22.10;22.40;;;;;;5031098;28;20655;-72
2023/09/18 07:32:58;;;;;;;6.07;3.60;;;22.10;22.40;;;;;;5011843;28;20218;-71
2023/09/18 07:35:25;;;;;;;6.30;2.70;;;22.30;22.50;;;;;;5033525;28;20452;-72
2023/09/18 07:37:51;;;;;;;6.03;2.73;;;22.40;21.90;;;;;;5034339;28;20421;-72
2023/09/18 07:40:16;;;;;;;4.10;2.80;;;22.20;21.70;;;;;;5034462;28;20939;-72
2023/09/18 07:42:45;;;;;;;7.60;3.00;;;22.10;20.60;;;;;;5016747;28;20203;-71
2023/09/18 07:45:11;;;;;;;5.60;2.53;;;22.20;21.60;;;;;;5034486;28;20317;-71
2023/09/18 07:47:37;;;;;;;6.00;2.40;;;22.30;20.10;;;;;;5034341;28;20471;-71
2023/09/18 07:50:03;;;;;;;6.33;3.13;;;22.30;19.30;;;;;;5034915;28;20414;-72
2023/09/18 07:52:30;;;;;;;8.23;2.77;;;22.40;19.00;;;;;;5034202;28;20201;-70
2023/09/18 07:54:55;;;;;;;5.93;3.30;;;22.40;18.50;;;;;;5034739;28;20416;-72
2023/09/18 07:57:22;;;;;;;5.03;2.70;;;22.80;18.10;;;;;;5034993;28;20418;-73
2023/09/18 07:59:48;;;;;;;4.87;2.57;;;23.20;15.70;;;;;;5034853;28;20171;-72
2023/09/18 08:02:14;;;;;;;6.10;2.50;;;23.10;15.80;;;;;;5040679;23;20461;-69
2023/09/18 08:04:40;;;;;;;6.63;3.00;;;23.20;14.30;;;;;;5033990;28;20935;-69
2023/09/18 08:07:06;;;;;;;5.83;1.90;;;23.40;14.40;;;;;;5049788;28;20210;-70
2023/09/18 08:09:36;;;;;;;3.87;1.70;;;23.20;14.00;;;;;;5034433;28;20178;-69
2023/09/18 08:12:03;;;;;;;6.07;1.73;;;22.90;14.10;;;;;;5034686;28;20413;-69
2023/09/18 08:14:28;;;;;;;2.50;1.60;;;22.50;15.30;;;;;;5016529;28;20419;-68
2023/09/18 08:16:58;;;;;;;5.50;2.33;;;22.30;16.40;;;;;;5014560;28;20427;-69
2023/09/18 08:19:26;;;;;;;9.17;2.73;;;22.10;17.00;;;;;;5016623;28;20180;-68
2023/09/18 08:21:54;;;;;;;3.40;1.87;;;21.90;17.80;;;;;;5014970;28;20483;-69
2023/09/18 08:24:19;;;;;;;5.73;1.80;;;21.70;17.70;;;;;;5015763;28;20518;-69
2023/09/18 08:26:45;;;;;;;4.40;2.30;;;21.50;18.90;;;;;;5016220;28;20501;-68
2023/09/18 08:29:10;;;;;;;4.73;1.70;;;21.50;19.90;;;;;;5015475;28;20176;-69
2023/09/18 08:31:36;;;;;;;3.07;1.53;;;21.40;19.70;;;;;;5015784;28;20180;-69
2023/09/18 08:34:01;;;;;;;5.40;1.47;;;21.10;21.70;;;;;;5015760;28;20199;-69
2023/09/18 08:36:30;;;;;;;4.07;1.17;;;20.90;23.80;;;;;;5014704;28;20187;-69
2023/09/18 08:38:56;;;;;;;3.70;1.77;;;20.80;25.70;;;;;;5014310;28;20214;-70
2023/09/18 08:41:27;;;;;;;4.00;1.17;;;20.30;27.20;;;;;;5014651;28;20419;-67
2023/09/18 08:43:58;;;;;;;2.63;1.30;;;20.00;29.60;;;;;;5014183;28;20283;-69
2023/09/18 08:46:25;;;;;;;3.67;1.10;;;19.70;32.40;;;;;;5015594;28;20447;-68
2023/09/18 08:48:52;;;;;;;2.17;1.23;;;19.60;34.10;;;;;;5013329;28;20447;-69
2023/09/18 08:51:18;;;;;;;2.67;1.10;;;19.50;32.60;;;;;;5013083;28;20411;-68
2023/09/18 08:53:45;;;;;;;2.70;1.17;;;19.60;33.40;;;;;;5014025;28;20442;-68
2023/09/18 08:56:13;;;;;;;4.13;1.40;;;19.80;34.10;;;;;;5013561;28;20473;-69
2023/09/18 08:58:42;;;;;;;2.80;1.10;;;19.70;33.30;;;;;;5013726;28;20427;-69
2023/09/18 09:01:09;;;;;;;5.47;1.83;;;19.70;33.10;;;;;;5013477;28;20961;-68
2023/09/18 09:03:38;;;;;;;2.90;1.70;;;19.70;33.60;;;;;;5014025;28;20450;-68
2023/09/18 09:06:04;;;;;;;3.03;1.47;;;19.60;34.40;;;;;;5012799;28;20442;-71
2023/09/18 09:08:30;;;;;;;2.97;1.10;;;19.50;33.50;;;;;;5011873;28;20419;-68
2023/09/18 09:10:58;;;;;;;3.10;1.20;;;19.30;36.00;;;;;;5013302;28;20414;-67
2023/09/18 09:13:27;;;;;;;4.03;1.07;;;19.20;36.70;;;;;;5013271;28;20195;-68
2023/09/18 09:15:58;;;;;;;5.83;1.50;;;19.20;35.80;;;;;;5013045;28;20438;-69
2023/09/18 09:18:26;;;;;;;4.00;1.30;;;19.20;35.00;;;;;;5012931;28;20506;-68
2023/09/18 09:20:57;;;;;;;2.57;0.90;;;19.20;37.00;;;;;;5013308;28;20794;-67
2023/09/18 09:23:23;;;;;;;3.90;1.00;;;19.30;35.60;;;;;;5013243;28;20465;-67
2023/09/18 09:25:49;;;;;;;2.17;0.90;;;19.30;34.80;;;;;;5013463;28;20435;-68
2023/09/18 09:28:16;;;;;;;2.23;1.10;;;19.40;35.40;;;;;;5013407;28;20422;-68
2023/09/18 09:30:42;;;;;;;1.97;1.10;;;19.40;35.20;;;;;;5011998;28;20271;-68
2023/09/18 09:33:11;;;;;;;2.10;0.97;;;19.50;37.80;;;;;;5011777;28;20541;-70
2023/09/18 09:35:37;;;;;;;2.13;0.73;;;19.70;33.30;;;;;;5013237;28;20195;-69
2023/09/18 09:38:11;;;;;;;2.33;1.03;;;19.70;31.60;;;;;;5013266;28;20417;-69
2023/09/18 09:40:40;;;;;;;2.30;0.97;;;19.70;32.00;;;;;;5013079;28;20425;-69
2023/09/18 09:43:08;;;;;;;2.70;1.03;;;19.70;33.00;;;;;;5012776;28;20450;-69
2023/09/18 09:45:37;;;;;;;2.97;1.13;;;19.60;34.50;;;;;;5012799;28;20790;-70
2023/09/18 09:48:05;;;;;;;2.00;0.80;;;19.60;34.40;;;;;;5012767;28;20888;-70
2023/09/18 09:50:32;;;;;;;3.80;1.40;;;19.60;34.80;;;;;;5012731;28;20756;-69
2023/09/18 09:52:57;;;;;;;5.63;1.70;;;19.60;37.70;;;;;;5010721;28;20911;-69
2023/09/18 09:55:24;;;;;;;2.17;1.30;;;19.70;38.50;;;;;;5012614;28;20419;-68
2023/09/18 09:57:53;;;;;;;4.80;1.67;;;19.70;39.60;;;;;;5012534;28;20419;-69
2023/09/18 10:00:26;;;;;;;4.17;1.47;;;19.80;38.90;;;;;;5011322;28;20445;-68
2023/09/18 10:03:01;;;;;;;3.60;1.33;;;19.80;38.20;;;;;;5012259;28;20592;-69
2023/09/18 10:05:30;;;;;;;2.60;1.07;;;19.90;39.40;;;;;;5012542;28;20414;-69
2023/09/18 10:08:01;;;;;;;2.07;1.00;;;20.10;37.20;;;;;;5012914;28;20486;-69
2023/09/18 10:10:36;;;;;;;2.63;1.10;;;20.40;38.20;;;;;;5013089;28;20469;-68
2023/09/18 10:13:30;;;;;;;3.63;1.33;;;20.60;34.30;;;;;;5011990;28;20426;-67
2023/09/18 10:15:56;;;;;;;4.37;1.70;;;20.70;34.60;;;;;;5011344;28;20784;-68
2023/09/18 10:18:42;;;;;;;2.40;1.00;;;20.60;32.00;;;;;;5011033;28;20415;-68
2023/09/18 10:21:31;;;;;;;2.77;0.90;;;20.60;33.90;;;;;;5012194;28;20461;-69
2023/09/18 10:24:20;;;;;;;2.60;1.30;;;20.50;29.80;;;;;;5010948;28;20645;-68
2023/09/18 10:26:53;;;;;;;2.93;1.40;;;20.50;30.80;;;;;;5012060;28;20528;-68
2023/09/18 10:29:20;;;;;;;4.77;0.90;;;20.20;30.60;;;;;;5010706;28;21008;-68
2023/09/18 10:31:48;;;;;;;1.80;0.80;;;20.10;29.50;;;;;;5011861;28;20417;-68
2023/09/18 10:34:15;;;;;;;2.90;1.17;;;19.90;31.30;;;;;;5011987;28;20576;-69
2023/09/18 10:36:42;;;;;;;2.47;1.10;;;19.70;32.80;;;;;;5012025;28;20784;-69
2023/09/18 10:39:12;;;;;;;2.50;1.00;;;19.50;35.40;;;;;;5011027;28;20414;-68
2023/09/18 10:41:39;;;;;;;2.83;1.30;;;19.40;35.90;;;;;;5011807;28;20411;-71
2023/09/18 10:44:11;;;;;;;1.60;0.70;;;19.30;37.70;;;;;;5011206;28;20465;-71
2023/09/18 10:46:37;;;;;;;4.60;1.43;;;19.30;38.20;;;;;;5012413;28;20450;-71
2023/09/18 10:49:03;;;;;;;3.20;1.20;;;19.30;39.00;;;;;;5010772;28;20941;-72
2023/09/18 10:51:29;;;;;;;2.20;1.33;;;19.40;39.40;;;;;;5011889;28;20180;-71
2023/09/18 10:53:57;;;;;;;2.37;0.90;;;19.40;42.00;;;;;;5009804;28;20442;-71
2023/09/18 10:56:24;;;;;;;4.03;1.50;;;19.40;41.10;;;;;;5011889;28;20453;-70
2023/09/18 10:58:59;;;;;;;2.50;1.07;;;19.40;42.00;;;;;;5010725;28;20427;-72
2023/09/18 11:01:27;;;;;;;3.07;1.30;;;19.50;39.70;;;;;;5011737;28;20469;-71
2023/09/18 11:03:54;;;;;;;4.10;1.13;;;19.60;40.80;;;;;;5011413;28;20461;-70
2023/09/18 11:06:26;;;;;;;2.27;1.17;;;19.60;41.10;;;;;;5010286;28;20906;-71
2023/09/18 11:09:01;;;;;;;3.10;0.90;;;19.60;40.30;;;;;;5026779;28;20953;-69
2023/09/18 11:11:29;;;;;;;3.27;1.23;;;19.70;40.30;;;;;;5011832;28;20410;-69
2023/09/18 11:13:56;;;;;;;3.07;1.30;;;19.80;39.70;;;;;;5011031;28;20423;-70
2023/09/18 11:16:27;;;;;;;9.67;1.43;;;19.80;39.20;;;;;;5011587;28;20497;-70
2023/09/18 11:19:00;;;;;;;2.80;1.43;;;19.80;39.60;;;;;;5011570;28;20565;-69
2023/09/18 11:21:31;;;;;;;2.50;1.20;;;19.80;39.80;;;;;;5010199;28;20506;-70
2023/09/18 11:24:04;;;;;;;7.80;1.33;;;19.90;41.10;;;;;;5011489;28;20476;-71
2023/09/18 11:26:39;;;;;;;3.20;1.00;;;20.00;39.50;;;;;;5011524;28;20454;-71
2023/09/18 11:29:09;;;;;;;5.57;1.50;;;19.90;37.60;;;;;;5011514;28;20402;-70
2023/09/18 11:31:50;;;;;;;12.37;2.93;;;19.90;37.00;;;;;;5011108;28;20446;-70
2023/09/18 11:34:22;;;;;;;6.90;2.10;;;19.80;36.80;;;;;;5011400;28;20435;-70
2023/09/18 11:36:48;;;;;;;3.10;1.43;;;19.80;36.60;;;;;;5011479;28;20415;-70
2023/09/18 11:39:36;;;;;;;3.80;1.43;;;19.80;37.50;;;;;;5010058;28;20434;-70
2023/09/18 11:42:10;;;;;;;4.53;1.37;;;19.80;38.30;;;;;;5013479;28;20433;-71
2023/09/18 11:44:40;;;;;;;3.50;1.50;;;19.90;38.70;;;;;;5014627;28;20421;-72
2023/09/18 11:47:12;;;;;;;3.77;1.07;;;19.80;37.60;;;;;;5013669;28;20473;-72
2023/09/18 11:49:41;;;;;;;2.10;1.10;;;19.80;39.00;;;;;;5015146;28;20423;-72
2023/09/18 11:52:07;;;;;;;2.40;1.40;;;19.70;39.60;;;;;;5014569;28;20410;-72
2023/09/18 11:54:34;;;;;;;3.70;1.20;;;19.70;38.10;;;;;;5014831;28;20415;-71
2023/09/18 11:57:05;;;;;;;2.40;1.27;;;19.90;38.20;;;;;;5015583;28;20817;-71
2023/09/18 11:59:39;;;;;;;2.07;1.03;;;19.90;38.70;;;;;;5016723;28;20434;-71
2023/09/18 12:02:06;;;;;;;2.63;1.37;;;19.90;37.90;;;;;;5029888;28;20481;-71
2023/09/18 12:04:33;;;;;;;2.70;1.50;;;20.00;36.60;;;;;;5014730;28;20419;-70
2023/09/18 12:07:02;;;;;;;2.47;1.27;;;20.00;36.20;;;;;;5014650;28;20494;-71
2023/09/18 12:09:30;;;;;;;2.77;1.37;;;19.90;38.00;;;;;;5030291;28;20824;-71
2023/09/18 12:11:57;;;;;;;2.77;1.03;;;19.90;36.30;;;;;;5013061;28;20407;-71
2023/09/18 12:14:23;;;;;;;4.53;1.57;;;19.90;35.50;;;;;;5014405;28;20435;-71
2023/09/18 12:16:50;;;;;;;3.47;1.17;;;19.80;34.20;;;;;;5014526;28;20494;-71
2023/09/18 12:19:19;;;;;;;4.50;1.40;;;19.80;34.30;;;;;;5014428;28;20497;-71
2023/09/18 12:21:48;;;;;;;2.87;1.50;;;19.80;33.80;;;;;;5014067;28;20415;-72
2023/09/18 12:24:15;;;;;;;2.90;1.20;;;20.00;32.30;;;;;;5012971;28;20862;-71
2023/09/18 12:26:41;;;;;;;2.03;1.30;;;20.20;32.10;;;;;;5014113;28;20462;-71
2023/09/18 12:29:07;;;;;;;2.93;0.80;;;20.60;28.60;;;;;;5014235;28;20423;-71
2023/09/18 12:31:33;;;;;;;2.97;1.40;;;20.90;27.80;;;;;;5012595;28;20179;-70
2023/09/18 12:33:59;;;;;;;2.80;1.40;;;21.30;27.90;;;;;;5014088;28;20477;-72
2023/09/18 12:36:25;;;;;;;2.70;0.97;;;22.00;25.50;;;;;;5029282;28;20271;-71
2023/09/18 12:39:00;;;;;;;4.27;1.57;;;22.40;21.70;;;;;;5013912;28;20497;-72
2023/09/18 12:41:26;;;;;;;4.60;1.87;;;22.50;22.50;;;;;;5012758;28;20187;-72
2023/09/18 12:43:53;;;;;;;3.20;1.23;;;22.80;20.40;;;;;;5012447;28;20854;-71
2023/09/18 12:46:21;;;;;;;2.07;1.67;;;22.70;20.30;;;;;;5012481;28;20450;-72